Time;durP1;ratioP1;P1;durP2;ratioP2;P2;SDS_P1;SDS_P2;PMS_P1;PMS_P2;Temp;Humidity;BMP_temperature;BMP_pressure;BME280_temperature;BME280_humidity;BME280_pressure;Samples;Min_cycle;Max_cycle;Signal;HPM_P1;HPM_P2
2024/01/13 00:00:52;;;;;;;2.85;2.10;;;;;;;17.01;45.46;103013.00;4942827;29;20047;-34
2024/01/13 00:03:18;;;;;;;3.00;2.08;;;;;;;17.00;45.06;103009.47;4940336;28;20051;-34
2024/01/13 00:05:45;;;;;;;2.65;1.98;;;;;;;16.97;45.43;103004.28;4942117;28;20051;-34
2024/01/13 00:08:12;;;;;;;2.45;1.75;;;;;;;16.94;44.76;102993.75;4940591;29;20055;-33
2024/01/13 00:10:51;;;;;;;3.13;2.17;;;;;;;16.91;45.62;102995.75;4940173;28;20051;-35
2024/01/13 00:13:18;;;;;;;3.30;1.83;;;;;;;16.86;44.93;102990.69;4941332;28;20059;-37
2024/01/13 00:15:44;;;;;;;1.90;1.70;;;;;;;16.83;45.67;102990.00;4940998;29;20079;-36
2024/01/13 00:18:12;;;;;;;2.63;2.15;;;;;;;16.80;45.23;102991.06;4940951;29;20624;-36
2024/01/13 00:20:53;;;;;;;2.55;1.80;;;;;;;16.76;45.39;102994.88;4940219;29;20059;-37
2024/01/13 00:23:20;;;;;;;2.78;1.83;;;;;;;16.72;44.97;102986.16;4941586;28;20073;-37
2024/01/13 00:25:46;;;;;;;2.20;1.52;;;;;;;16.69;45.05;102985.47;4940008;29;20613;-37
2024/01/13 00:28:13;;;;;;;2.67;1.90;;;;;;;16.65;45.46;102978.59;4943018;29;20059;-37
2024/01/13 00:30:54;;;;;;;2.70;1.98;;;;;;;16.62;45.49;102976.94;4939670;29;20047;-36
2024/01/13 00:33:20;;;;;;;2.47;1.80;;;;;;;16.61;45.95;102980.56;4938102;28;20058;-34
2024/01/13 00:35:47;;;;;;;1.83;1.60;;;;;;;16.58;45.17;102967.38;4938454;28;20123;-34
2024/01/13 00:38:14;;;;;;;1.67;1.40;;;;;;;16.54;46.08;102950.63;4938977;28;20336;-36
2024/01/13 00:40:57;;;;;;;2.13;1.80;;;;;;;16.52;46.19;102960.59;4939019;28;20083;-35
2024/01/13 00:43:24;;;;;;;1.85;1.50;;;;;;;16.47;45.54;102957.28;4939702;29;20059;-34
2024/01/13 00:45:50;;;;;;;2.33;1.85;;;;;;;16.42;45.73;102956.72;4938310;29;20055;-34
2024/01/13 00:48:17;;;;;;;2.33;1.58;;;;;;;16.38;46.18;102948.97;4939815;28;20051;-36
2024/01/13 00:50:55;;;;;;;2.95;1.60;;;;;;;16.35;46.14;102941.09;4936865;29;20047;-35
2024/01/13 00:53:21;;;;;;;3.00;1.67;;;;;;;16.31;46.49;102935.06;4939919;28;20138;-36
2024/01/13 00:55:48;;;;;;;2.15;1.63;;;;;;;16.26;45.90;102943.38;4938756;28;20079;-34
2024/01/13 00:58:16;;;;;;;2.08;1.50;;;;;;;16.25;45.96;102936.31;4940384;28;20173;-36
2024/01/13 01:00:59;;;;;;;2.45;1.73;;;;;;;16.32;46.80;102930.59;4929430;28;20048;-35
2024/01/13 01:03:26;;;;;;;1.90;1.65;;;;;;;16.43;46.01;102918.28;4935658;28;20083;-35
2024/01/13 01:05:54;;;;;;;2.92;1.88;;;;;;;16.53;45.81;102918.59;4937430;28;20055;-35
2024/01/13 01:08:21;;;;;;;3.03;1.83;;;;;;;16.61;46.03;102920.81;4939745;28;20110;-36
2024/01/13 01:10:56;;;;;;;1.88;1.35;;;;;;;16.70;46.15;102925.59;4938788;29;20486;-35
2024/01/13 01:13:22;;;;;;;2.10;1.52;;;;;;;16.77;45.79;102921.63;4935906;28;20391;-33
2024/01/13 01:15:49;;;;;;;2.13;1.60;;;;;;;16.83;44.92;102915.88;4937596;29;20201;-34
2024/01/13 01:18:16;;;;;;;1.80;1.50;;;;;;;16.88;45.90;102920.94;4939785;29;20059;-34
2024/01/13 01:20:50;;;;;;;3.38;1.83;;;;;;;16.92;45.13;102909.09;4939127;28;20044;-34
2024/01/13 01:23:18;;;;;;;1.70;1.45;;;;;;;16.95;44.99;102914.25;4936542;28;20083;-34
2024/01/13 01:25:45;;;;;;;2.60;1.50;;;;;;;17.00;44.92;102909.47;4937437;28;20138;-34
2024/01/13 01:28:11;;;;;;;2.08;1.50;;;;;;;17.00;45.18;102906.78;4938487;29;20134;-33
2024/01/13 01:30:49;;;;;;;1.73;1.45;;;;;;;17.00;45.19;102909.47;4938866;28;20055;-33
2024/01/13 01:33:16;;;;;;;3.20;1.30;;;;;;;16.98;45.23;102906.03;4937723;28;20059;-34
2024/01/13 01:35:43;;;;;;;2.28;1.60;;;;;;;16.94;45.42;102909.88;4937216;28;20399;-34
2024/01/13 01:38:09;;;;;;;1.88;1.25;;;;;;;16.91;45.18;102910.06;4940060;28;20043;-36
2024/01/13 01:40:53;;;;;;;1.63;1.40;;;;;;;16.86;44.78;102904.13;4938712;28;20067;-36
2024/01/13 01:43:20;;;;;;;2.80;1.50;;;;;;;16.84;45.56;102903.34;4939097;28;20338;-35
2024/01/13 01:45:54;;;;;;;2.00;1.70;;;;;;;16.78;44.99;102904.59;4938721;28;20446;-36
2024/01/13 01:48:27;;;;;;;1.52;1.33;;;;;;;16.76;45.20;102906.50;4937969;29;20102;-36
2024/01/13 01:51:05;;;;;;;2.00;1.83;;;;;;;16.72;45.05;102903.16;4937973;29;20343;-36
2024/01/13 01:53:34;;;;;;;1.88;1.67;;;;;;;16.71;45.93;102908.56;4938831;29;20058;-35
2024/01/13 01:56:06;;;;;;;1.90;1.70;;;;;;;16.68;45.17;102895.38;4939513;29;20135;-37
2024/01/13 01:58:33;;;;;;;1.83;1.48;;;;;;;16.67;45.56;102891.84;4938907;29;20111;-37
2024/01/13 02:01:02;;;;;;;2.38;1.70;;;;;;;16.62;44.83;102885.06;4932331;29;20070;-34
2024/01/13 02:03:29;;;;;;;2.17;1.65;;;;;;;16.58;45.59;102881.69;4941962;28;20138;-36
2024/01/13 02:05:58;;;;;;;3.03;2.00;;;;;;;16.53;45.36;102876.63;4939726;29;20048;-34
2024/01/13 02:08:25;;;;;;;1.52;1.40;;;;;;;16.47;45.41;102881.50;4942544;29;20055;-36
2024/01/13 02:11:05;;;;;;;1.75;1.40;;;;;;;16.43;45.60;102877.28;4937597;29;20086;-35
2024/01/13 02:13:32;;;;;;;1.98;1.67;;;;;;;16.40;45.93;102869.44;4944406;29;20354;-36
2024/01/13 02:15:59;;;;;;;2.15;1.60;;;;;;;16.35;46.01;102861.69;4940826;29;20065;-35
2024/01/13 02:18:25;;;;;;;1.80;1.42;;;;;;;16.33;46.04;102857.41;4939222;29;20070;-36
2024/01/13 02:21:05;;;;;;;1.40;1.30;;;;;;;16.31;46.04;102862.81;4940929;29;20057;-34
2024/01/13 02:23:32;;;;;;;1.92;1.58;;;;;;;16.32;45.59;102852.97;4946179;28;20375;-36
2024/01/13 02:25:59;;;;;;;1.95;1.48;;;;;;;16.38;46.70;102847.28;4946276;28;20138;-35
2024/01/13 02:28:26;;;;;;;1.75;1.50;;;;;;;16.48;46.39;102838.59;4945026;28;20133;-36
2024/01/13 02:31:10;;;;;;;1.30;1.20;;;;;;;16.58;45.40;102836.19;4945335;28;20455;-36
2024/01/13 02:33:36;;;;;;;1.65;1.40;;;;;;;16.66;45.92;102831.22;4938555;28;20051;-35
2024/01/13 02:36:04;;;;;;;2.88;1.70;;;;;;;16.74;45.47;102828.94;4942616;28;20051;-36
2024/01/13 02:38:31;;;;;;;1.60;1.50;;;;;;;16.80;45.79;102827.69;4942165;29;20346;-36
2024/01/13 02:41:04;;;;;;;2.33;1.20;;;;;;;16.86;45.78;102823.78;4944080;29;20051;-36
2024/01/13 02:43:31;;;;;;;1.70;1.52;;;;;;;16.90;45.40;102831.50;4942871;28;20363;-34
2024/01/13 02:45:57;;;;;;;1.55;1.23;;;;;;;16.92;45.62;102823.38;4943294;29;20055;-37
2024/01/13 02:48:24;;;;;;;1.48;1.38;;;;;;;16.92;45.56;102812.66;4940937;29;20051;-35
2024/01/13 02:51:06;;;;;;;1.58;1.25;;;;;;;16.91;45.15;102806.44;4939136;28;20064;-34
2024/01/13 02:53:33;;;;;;;2.15;1.58;;;;;;;16.88;44.54;102803.09;4940216;28;20102;-37
2024/01/13 02:56:00;;;;;;;2.00;1.45;;;;;;;16.85;45.48;102803.31;4942435;29;20328;-36
2024/01/13 02:58:27;;;;;;;1.60;1.42;;;;;;;16.81;44.89;102797.28;4943633;28;20511;-35
2024/01/13 03:01:08;;;;;;;1.83;1.55;;;;;;;16.76;45.39;102789.56;4939361;29;20475;-35
2024/01/13 03:03:35;;;;;;;1.77;1.45;;;;;;;16.73;45.05;102784.41;4942549;29;20048;-35
2024/01/13 03:06:04;;;;;;;1.77;1.45;;;;;;;16.73;45.60;102786.22;4938575;28;20219;-37
2024/01/13 03:08:31;;;;;;;1.73;1.40;;;;;;;16.71;45.45;102782.72;4938700;29;20280;-35
2024/01/13 03:11:08;;;;;;;1.58;1.45;;;;;;;16.67;45.36;102774.03;4942103;28;20062;-35
2024/01/13 03:13:36;;;;;;;1.63;1.45;;;;;;;16.65;45.71;102773.28;4935618;28;20229;-36
2024/01/13 03:16:03;;;;;;;2.00;1.77;;;;;;;16.60;46.14;102769.16;4941451;28;20061;-35
2024/01/13 03:18:29;;;;;;;1.83;1.38;;;;;;;16.53;45.85;102761.53;4942478;28;20047;-35
2024/01/13 03:21:06;;;;;;;1.75;1.65;;;;;;;16.51;45.61;102762.56;4940969;29;20054;-35
2024/01/13 03:23:33;;;;;;;1.33;1.20;;;;;;;16.47;45.71;102761.03;4942206;29;20055;-35
2024/01/13 03:26:00;;;;;;;1.80;1.50;;;;;;;16.42;45.74;102755.13;4937788;29;20055;-42
2024/01/13 03:28:27;;;;;;;1.92;1.58;;;;;;;16.36;46.26;102753.72;4936261;28;20430;-36
2024/01/13 03:31:06;;;;;;;1.75;1.52;;;;;;;16.35;45.60;102751.09;4942426;29;20047;-35
2024/01/13 03:33:34;;;;;;;1.70;1.60;;;;;;;16.38;46.29;102746.44;4940420;29;20332;-35
2024/01/13 03:36:01;;;;;;;1.50;1.40;;;;;;;16.45;46.02;102741.56;4936746;29;20455;-36
2024/01/13 03:38:27;;;;;;;1.83;1.60;;;;;;;16.54;45.95;102733.78;4938408;29;20047;-35
2024/01/13 03:41:07;;;;;;;1.50;1.40;;;;;;;16.65;45.95;102725.09;4935279;29;20047;-36
2024/01/13 03:43:34;;;;;;;1.60;1.40;;;;;;;16.73;45.83;102730.84;4938117;28;20411;-36
2024/01/13 03:46:03;;;;;;;1.70;1.50;;;;;;;16.80;45.59;102723.25;4944535;29;20059;-35
2024/01/13 03:48:30;;;;;;;2.13;1.65;;;;;;;16.85;45.50;102720.28;4936595;29;20051;-35
2024/01/13 03:50:57;;;;;;;1.60;1.50;;;;;;;16.90;45.78;102718.16;4941923;28;20130;-35
2024/01/13 03:53:23;;;;;;;1.95;1.58;;;;;;;16.94;45.25;102711.66;4939980;28;20067;-36
2024/01/13 03:55:50;;;;;;;1.95;1.60;;;;;;;16.97;45.18;102719.50;4937076;29;20427;-34
2024/01/13 03:58:17;;;;;;;1.73;1.58;;;;;;;16.98;45.15;102722.06;4937422;28;20051;-35
2024/01/13 04:00:43;;;;;;;1.58;1.48;;;;;;;16.99;45.15;102722.91;4936706;29;20106;-34
2024/01/13 04:03:10;;;;;;;2.38;1.58;;;;;;;16.97;45.49;102715.00;4935467;29;20063;-34
2024/01/13 04:05:37;;;;;;;1.45;1.33;;;;;;;16.94;45.19;102706.28;4935828;29;20051;-34
2024/01/13 04:08:04;;;;;;;1.27;1.17;;;;;;;16.89;45.60;102698.56;4938205;28;20088;-36
2024/01/13 04:10:31;;;;;;;1.58;1.42;;;;;;;16.86;45.18;102701.44;4938762;28;20052;-34
2024/01/13 04:12:57;;;;;;;2.35;1.48;;;;;;;16.84;45.55;102707.84;4935019;28;20246;-35
2024/01/13 04:15:24;;;;;;;1.67;1.58;;;;;;;16.79;45.34;102689.41;4937618;29;20082;-36
2024/01/13 04:17:50;;;;;;;3.08;1.92;;;;;;;16.77;45.20;102689.50;4936311;29;20106;-35
2024/01/13 04:20:17;;;;;;;1.83;1.52;;;;;;;16.74;45.32;102697.75;4935859;28;20047;-35
2024/01/13 04:22:44;;;;;;;1.52;1.42;;;;;;;16.71;45.41;102689.88;4940017;28;20103;-34
2024/01/13 04:25:11;;;;;;;1.55;1.45;;;;;;;16.69;45.19;102690.94;4938959;28;20051;-34
2024/01/13 04:27:38;;;;;;;1.65;1.55;;;;;;;16.67;45.46;102692.84;4940769;29;20350;-35
2024/01/13 04:30:05;;;;;;;1.73;1.45;;;;;;;16.63;45.79;102688.66;4943548;29;20054;-37
2024/01/13 04:32:32;;;;;;;2.15;1.23;;;;;;;16.60;45.07;102689.69;4939222;28;20403;-35
2024/01/13 04:34:58;;;;;;;1.45;1.20;;;;;;;16.55;45.07;102689.13;4942434;28;20117;-35
2024/01/13 04:37:25;;;;;;;1.60;1.40;;;;;;;16.50;45.69;102685.91;4943277;29;20075;-34
2024/01/13 04:39:52;;;;;;;1.63;1.42;;;;;;;16.45;45.85;102686.22;4933195;28;20058;-35
2024/01/13 04:42:18;;;;;;;1.70;1.50;;;;;;;16.42;46.61;102682.88;4941777;28;20133;-35
2024/01/13 04:44:45;;;;;;;1.92;1.65;;;;;;;16.38;46.20;102678.66;4939014;29;20051;-35
2024/01/13 04:47:11;;;;;;;1.45;1.35;;;;;;;16.43;46.25;102679.22;4940786;29;20101;-35
2024/01/13 04:49:38;;;;;;;1.55;1.40;;;;;;;16.51;45.65;102679.59;4940458;28;20055;-36
2024/01/13 04:52:05;;;;;;;1.15;1.05;;;;;;;16.61;45.61;102663.81;4939615;28;20051;-36
2024/01/13 04:54:31;;;;;;;1.60;1.50;;;;;;;16.69;45.95;102675.75;4935096;28;20054;-35
2024/01/13 04:56:59;;;;;;;1.90;1.70;;;;;;;16.77;45.46;102675.28;4939251;28;20372;-36
2024/01/13 04:59:26;;;;;;;1.63;1.52;;;;;;;16.84;45.64;102665.00;4932735;29;20585;-36
2024/01/13 05:01:53;;;;;;;2.15;1.67;;;;;;;16.89;45.89;102674.47;4936920;29;20047;-34
2024/01/13 05:04:20;;;;;;;2.55;1.65;;;;;;;16.93;45.60;102675.13;4942320;29;20063;-34
2024/01/13 05:06:46;;;;;;;1.63;1.50;;;;;;;16.98;45.03;102679.19;4939904;29;20133;-35
2024/01/13 05:09:14;;;;;;;1.88;1.60;;;;;;;17.01;44.90;102678.16;4938891;29;20352;-35
2024/01/13 05:11:41;;;;;;;2.03;1.45;;;;;;;17.03;44.95;102692.28;4937703;28;20466;-34
2024/01/13 05:14:07;;;;;;;1.55;1.35;;;;;;;17.01;44.92;102695.06;4936828;29;20052;-34
2024/01/13 05:16:34;;;;;;;1.50;1.40;;;;;;;16.99;44.82;102696.97;4938745;29;20255;-35
2024/01/13 05:19:02;;;;;;;1.58;1.35;;;;;;;16.95;45.42;102684.75;4935453;28;20056;-34
2024/01/13 05:21:30;;;;;;;2.20;1.50;;;;;;;16.93;45.24;102693.88;4938793;29;20054;-35
2024/01/13 05:23:56;;;;;;;2.00;1.77;;;;;;;16.89;45.51;102687.00;4937916;29;20062;-36
2024/01/13 05:26:23;;;;;;;1.88;1.70;;;;;;;16.85;44.99;102678.31;4936991;29;20471;-36
2024/01/13 05:28:49;;;;;;;1.60;1.33;;;;;;;16.83;45.46;102674.84;4938732;28;20073;-34
2024/01/13 05:31:16;;;;;;;2.70;2.10;;;;;;;16.81;44.96;102675.94;4936472;29;20047;-34
2024/01/13 05:33:43;;;;;;;1.98;1.60;;;;;;;16.77;45.08;102654.69;4939211;28;20063;-34
2024/01/13 05:36:10;;;;;;;2.40;2.00;;;;;;;16.76;45.48;102654.78;4936683;29;20058;-34
2024/01/13 05:38:37;;;;;;;3.10;2.10;;;;;;;16.72;45.54;102632.69;4941925;29;20051;-35
2024/01/13 05:41:04;;;;;;;2.92;2.30;;;;;;;16.70;45.04;102629.25;4938705;28;20050;-40
2024/01/13 05:43:30;;;;;;;2.30;2.00;;;;;;;16.68;44.96;102616.91;4940451;29;20056;-35
2024/01/13 05:45:57;;;;;;;2.80;2.50;;;;;;;16.62;45.34;102611.97;4944112;29;20092;-34
2024/01/13 05:48:23;;;;;;;3.70;2.42;;;;;;;16.57;44.85;102614.13;4940491;28;20044;-34
2024/01/13 05:50:50;;;;;;;2.13;1.88;;;;;;;16.51;45.61;102639.44;4939264;29;20147;-34
2024/01/13 05:53:17;;;;;;;2.30;2.05;;;;;;;16.45;45.27;102639.84;4943460;29;20151;-35
2024/01/13 05:55:44;;;;;;;1.95;1.60;;;;;;;16.42;46.09;102648.06;4938401;29;20395;-35
2024/01/13 05:58:10;;;;;;;2.00;1.73;;;;;;;16.38;46.29;102649.22;4941924;28;20142;-35
2024/01/13 06:00:37;;;;;;;2.30;1.88;;;;;;;16.35;46.25;102649.41;4941291;29;20051;-36
2024/01/13 06:03:04;;;;;;;2.33;1.73;;;;;;;16.32;46.31;102631.72;4940267;29;20147;-35
2024/01/13 06:05:31;;;;;;;2.00;1.67;;;;;;;16.31;46.32;102631.84;4939486;29;20055;-36
2024/01/13 06:07:58;;;;;;;1.52;1.42;;;;;;;16.33;46.29;102637.97;4940035;28;20138;-35
2024/01/13 06:10:27;;;;;;;1.98;1.77;;;;;;;16.40;45.85;102636.59;4939929;29;20059;-35
2024/01/13 06:12:54;;;;;;;1.83;1.60;;;;;;;16.51;45.68;102644.78;4940121;28;20055;-36
2024/01/13 06:15:21;;;;;;;2.28;1.83;;;;;;;16.61;45.88;102629.88;4941724;28;20087;-35
2024/01/13 06:17:48;;;;;;;2.45;1.92;;;;;;;16.69;45.45;102605.25;4939536;29;20055;-35
2024/01/13 06:20:15;;;;;;;1.75;1.50;;;;;;;16.76;45.50;102596.75;4940226;29;20422;-37
2024/01/13 06:22:42;;;;;;;1.83;1.58;;;;;;;16.83;45.46;102580.25;4938782;28;20355;-35
2024/01/13 06:25:09;;;;;;;2.15;1.60;;;;;;;16.88;45.99;102572.78;4938368;29;20061;-35
2024/01/13 06:27:35;;;;;;;2.00;1.50;;;;;;;16.92;45.79;102555.53;4936851;29;20546;-35
2024/01/13 06:30:03;;;;;;;1.42;1.33;;;;;;;16.95;45.77;102555.31;4939888;29;20418;-34
2024/01/13 06:32:30;;;;;;;1.50;1.40;;;;;;;16.96;44.93;102555.22;4937271;29;20052;-34
2024/01/13 06:34:57;;;;;;;1.83;1.63;;;;;;;16.93;45.71;102547.41;4940396;28;20341;-33
2024/01/13 06:37:26;;;;;;;1.60;1.40;;;;;;;16.92;45.48;102544.81;4938111;29;20063;-34
2024/01/13 06:39:53;;;;;;;1.20;1.10;;;;;;;16.87;45.11;102542.47;4937564;28;20059;-36
2024/01/13 06:42:19;;;;;;;1.50;1.30;;;;;;;16.84;45.70;102539.13;4940844;28;20455;-35
2024/01/13 06:44:46;;;;;;;1.75;1.40;;;;;;;16.81;45.85;102536.69;4940013;28;20058;-35
2024/01/13 06:47:13;;;;;;;1.40;1.30;;;;;;;16.77;45.75;102528.84;4940495;28;20043;-35
2024/01/13 06:49:39;;;;;;;1.00;0.93;;;;;;;16.75;46.18;102540.63;4941051;28;20077;-35
2024/01/13 06:52:09;;;;;;;1.30;1.20;;;;;;;16.72;46.01;102547.03;4941710;29;20047;-35
2024/01/13 06:54:35;;;;;;;1.70;1.00;;;;;;;16.69;45.12;102544.53;4940095;29;20086;-34
2024/01/13 06:57:02;;;;;;;1.55;1.10;;;;;;;16.67;45.26;102557.16;4943730;29;20058;-36
2024/01/13 06:59:29;;;;;;;1.55;1.23;;;;;;;16.62;46.10;102553.09;4943860;29;20057;-41
2024/01/13 07:01:56;;;;;;;1.10;1.00;;;;;;;16.57;45.66;102556.06;4939879;29;20130;-35
2024/01/13 07:04:22;;;;;;;0.98;0.93;;;;;;;16.52;45.72;102545.69;4938732;29;20048;-35
2024/01/13 07:06:49;;;;;;;1.63;1.23;;;;;;;16.48;46.46;102524.53;4943846;28;20061;-41
2024/01/13 07:09:19;;;;;;;1.08;0.80;;;;;;;16.44;46.31;102526.59;4937967;29;20106;-35
2024/01/13 07:11:49;;;;;;;1.10;1.00;;;;;;;16.41;46.59;102526.78;4941091;29;20143;-35
2024/01/13 07:14:15;;;;;;;1.15;0.90;;;;;;;16.38;46.91;102508.25;4938570;29;20059;-35
2024/01/13 07:16:42;;;;;;;1.63;1.05;;;;;;;16.36;46.90;102498.59;4943586;28;20075;-34
2024/01/13 07:19:09;;;;;;;1.10;1.00;;;;;;;16.32;46.43;102486.38;4942769;28;20082;-34
2024/01/13 07:21:36;;;;;;;1.25;0.93;;;;;;;16.29;46.61;102490.16;4941015;28;20059;-35
2024/01/13 07:24:08;;;;;;;0.80;0.80;;;;;;;16.26;46.91;102491.19;4933396;28;20082;-36
2024/01/13 07:26:39;;;;;;;1.15;1.05;;;;;;;16.24;46.83;102476.19;4941459;28;20133;-35
2024/01/13 07:29:07;;;;;;;1.13;0.85;;;;;;;16.23;46.39;102485.19;4936528;29;20374;-35
2024/01/13 07:31:33;;;;;;;1.40;0.90;;;;;;;16.21;46.56;102506.69;4939649;28;20162;-37
2024/01/13 07:34:00;;;;;;;0.98;0.90;;;;;;;16.19;47.34;102502.41;4941880;28;20099;-35
2024/01/13 07:36:27;;;;;;;1.10;1.00;;;;;;;16.18;46.11;102514.06;4937444;29;20051;-35
2024/01/13 07:38:54;;;;;;;2.17;1.05;;;;;;;16.17;47.46;102497.16;4938785;28;20052;-35
2024/01/13 07:41:21;;;;;;;1.75;1.27;;;;;;;16.16;46.64;102497.25;4938847;28;20047;-35
2024/01/13 07:43:47;;;;;;;2.13;1.60;;;;;;;16.15;47.05;102496.38;4937751;28;20402;-36
2024/01/13 07:46:14;;;;;;;2.55;1.60;;;;;;;16.15;46.45;102511.59;4939559;28;20130;-35
2024/01/13 07:48:40;;;;;;;3.92;2.10;;;;;;;16.13;47.31;102506.34;4939833;29;20055;-36
2024/01/13 07:51:07;;;;;;;3.00;2.17;;;;;;;16.12;46.27;102506.44;4939529;28;20055;-35
2024/01/13 07:53:37;;;;;;;3.20;2.45;;;;;;;16.10;46.39;102498.53;4936829;29;20138;-35
2024/01/13 07:56:03;;;;;;;3.25;2.25;;;;;;;16.09;46.73;102495.97;4938856;29;20491;-35
2024/01/13 07:58:32;;;;;;;2.92;2.33;;;;;;;16.09;47.24;102495.97;4934784;29;20058;-36
2024/01/13 08:00:59;;;;;;;3.10;2.42;;;;;;;16.07;46.91;102490.69;4937792;29;20051;-35
2024/01/13 08:03:25;;;;;;;4.05;2.88;;;;;;;16.07;46.31;102495.19;4939650;29;20518;-36
2024/01/13 08:05:52;;;;;;;4.32;3.13;;;;;;;16.05;47.48;102495.28;4937258;29;20051;-34
2024/01/13 08:08:19;;;;;;;5.40;3.53;;;;;;;16.03;47.22;102500.72;4939253;29;20069;-34
2024/01/13 08:10:46;;;;;;;4.30;3.13;;;;;;;16.03;46.44;102502.53;4936941;28;20078;-34
2024/01/13 08:13:16;;;;;;;4.70;3.33;;;;;;;16.02;47.44;102498.16;4937589;29;20142;-35
2024/01/13 08:15:43;;;;;;;5.97;3.42;;;;;;;16.02;47.13;102506.19;4934744;29;20123;-36
2024/01/13 08:18:10;;;;;;;5.45;3.58;;;;;;;16.01;47.37;102504.47;4938498;29;20447;-35
2024/01/13 08:20:38;;;;;;;5.30;3.63;;;;;;;16.00;46.60;102505.41;4936435;28;20434;-37
2024/01/13 08:23:04;;;;;;;5.70;3.65;;;;;;;15.97;47.35;102509.16;4937045;28;20077;-35
2024/01/13 08:25:31;;;;;;;5.75;4.00;;;;;;;15.96;47.69;102496.75;4936432;29;20086;-34
2024/01/13 08:27:57;;;;;;;6.50;4.00;;;;;;;15.96;47.62;102506.56;4935613;28;20064;-34
2024/01/13 08:30:24;;;;;;;4.97;3.88;;;;;;;15.96;47.46;102501.22;4937594;29;20050;-34
2024/01/13 08:32:51;;;;;;;4.25;3.42;;;;;;;15.94;47.21;102500.47;4938242;29;20050;-34
2024/01/13 08:35:18;;;;;;;5.93;3.92;;;;;;;15.92;46.50;102494.34;4934528;29;20507;-35
2024/01/13 08:37:44;;;;;;;5.10;4.00;;;;;;;15.92;47.58;102499.69;4935623;28;20329;-34
2024/01/13 08:40:11;;;;;;;5.60;3.90;;;;;;;15.90;46.89;102507.84;4936070;28;20507;-37
2024/01/13 08:42:37;;;;;;;6.13;4.10;;;;;;;15.90;47.36;102497.13;4937480;28;20178;-36
2024/01/13 08:45:05;;;;;;;6.28;4.30;;;;;;;15.89;46.59;102491.91;4937746;29;20069;-36
2024/01/13 08:47:31;;;;;;;6.45;4.50;;;;;;;15.88;46.58;102485.69;4935567;28;20070;-34
2024/01/13 08:49:58;;;;;;;6.38;4.38;;;;;;;15.86;46.51;102484.94;4938241;29;20142;-35
2024/01/13 08:52:25;;;;;;;7.25;4.63;;;;;;;15.86;46.86;102484.94;4933955;29;20503;-35
2024/01/13 08:54:51;;;;;;;7.50;4.93;;;;;;;15.85;46.66;102488.56;4938229;28;20054;-37
2024/01/13 08:57:18;;;;;;;8.02;5.30;;;;;;;15.84;46.79;102481.50;4936600;28;20105;-34
2024/01/13 08:59:44;;;;;;;9.20;5.93;;;;;;;15.83;47.63;102473.56;4940257;29;20059;-35
2024/01/13 09:02:11;;;;;;;10.40;7.18;;;;;;;15.82;46.70;102477.22;4938440;28;20348;-36
2024/01/13 09:04:38;;;;;;;12.48;7.90;;;;;;;15.81;47.54;102486.19;4939924;29;20070;-36
2024/01/13 09:07:05;;;;;;;11.55;7.45;;;;;;;15.81;47.31;102479.03;4940532;29;20053;-35
2024/01/13 09:09:31;;;;;;;12.18;8.38;;;;;;;15.79;46.89;102478.25;4937743;28;20047;-34
2024/01/13 09:11:58;;;;;;;14.10;9.25;;;;;;;15.78;47.33;102472.06;4936718;29;20097;-35
2024/01/13 09:14:25;;;;;;;12.13;8.25;;;;;;;15.77;46.78;102474.84;4934463;29;20047;-35
2024/01/13 09:16:51;;;;;;;15.02;10.00;;;;;;;15.75;47.68;102468.72;4937196;28;20118;-34
2024/01/13 09:19:18;;;;;;;15.27;9.95;;;;;;;15.75;47.43;102468.72;4938979;29;20415;-35
2024/01/13 09:21:45;;;;;;;16.45;10.55;;;;;;;15.75;47.02;102460.69;4934869;28;20083;-34
2024/01/13 09:24:14;;;;;;;17.52;10.75;;;;;;;15.73;47.44;102459.94;4937780;28;20125;-36
2024/01/13 09:26:42;;;;;;;18.33;11.07;;;;;;;15.72;46.83;102461.78;4935839;29;20059;-34
2024/01/13 09:29:13;;;;;;;18.48;11.43;;;;;;;15.71;46.92;102449.34;4934838;29;20143;-36
2024/01/13 09:31:40;;;;;;;18.10;11.32;;;;;;;15.70;46.87;102450.31;4937199;29;20626;-35
2024/01/13 09:34:08;;;;;;;18.55;11.88;;;;;;;15.69;46.96;102461.97;4937749;29;20065;-35
2024/01/13 09:36:38;;;;;;;20.02;12.05;;;;;;;15.68;47.17;102452.22;4936406;29;20151;-34
2024/01/13 09:39:04;;;;;;;19.27;12.25;;;;;;;15.68;46.73;102454.91;4940708;28;20052;-34
2024/01/13 09:41:32;;;;;;;19.52;12.57;;;;;;;15.67;47.25;102453.16;4938447;28;20052;-36
2024/01/13 09:44:28;;;;;;;17.77;11.68;;;;;;;15.64;47.56;102453.34;4936005;29;20553;-34
2024/01/13 09:46:57;;;;;;;19.38;12.88;;;;;;;15.66;47.30;102445.25;4937451;29;20055;-33
2024/01/13 09:49:26;;;;;;;19.13;12.00;;;;;;;15.64;47.81;102442.66;4938050;28;20074;-37
2024/01/13 09:51:54;;;;;;;18.88;12.27;;;;;;;15.63;47.28;102454.28;4937056;29;20087;-36
2024/01/13 09:54:23;;;;;;;17.30;11.27;;;;;;;15.63;47.20;102445.41;4935986;29;20047;-35
2024/01/13 09:56:51;;;;;;;19.90;13.10;;;;;;;15.62;46.83;102441.03;4935844;28;20059;-36
2024/01/13 09:59:22;;;;;;;19.30;12.88;;;;;;;15.60;46.84;102443.81;4937779;29;20059;-34
2024/01/13 10:01:49;;;;;;;19.40;12.05;;;;;;;15.61;46.96;102450.03;4933815;29;20062;-35
2024/01/13 10:04:16;;;;;;;19.02;12.02;;;;;;;15.59;47.45;102444.75;4937210;29;20077;-35
2024/01/13 10:06:44;;;;;;;19.05;12.02;;;;;;;15.59;46.86;102446.56;4936930;28;20051;-34
2024/01/13 10:09:11;;;;;;;19.58;13.00;;;;;;;15.59;47.09;102449.25;4936430;28;20088;-35
2024/01/13 10:11:58;;;;;;;16.90;11.77;;;;;;;15.59;47.13;102441.22;4938377;28;20090;-36
2024/01/13 10:14:25;;;;;;;19.13;12.48;;;;;;;15.59;47.23;102441.22;4934347;28;20399;-34
2024/01/13 10:16:51;;;;;;;18.25;11.38;;;;;;;15.57;47.85;102438.66;4937859;29;20507;-36
2024/01/13 10:19:18;;;;;;;18.90;11.98;;;;;;;15.56;47.95;102450.31;4938747;28;20047;-36
2024/01/13 10:21:45;;;;;;;18.15;11.85;;;;;;;15.54;48.04;102441.53;4937816;28;20055;-34
2024/01/13 10:24:12;;;;;;;18.50;11.13;;;;;;;15.54;48.07;102431.69;4944255;29;20145;-37
2024/01/13 10:26:39;;;;;;;17.73;12.27;;;;;;;15.53;47.19;102429.13;4940458;28;20043;-36
2024/01/13 10:29:06;;;;;;;18.05;11.82;;;;;;;15.52;47.80;102427.41;4938721;28;20154;-36
2024/01/13 10:31:35;;;;;;;17.10;11.07;;;;;;;15.53;48.01;102429.13;4939027;29;20432;-35
2024/01/13 10:34:10;;;;;;;18.27;12.30;;;;;;;15.51;47.91;102425.69;4940634;29;20126;-35
2024/01/13 10:36:38;;;;;;;16.73;11.57;;;;;;;15.51;48.01;102420.34;4938309;28;20141;-40
2024/01/13 10:39:07;;;;;;;15.93;11.18;;;;;;;15.51;48.21;102417.66;4941929;29;20514;-35
2024/01/13 10:41:35;;;;;;;16.83;10.90;;;;;;;15.50;48.12;102416.81;4940061;29;20522;-35
2024/01/13 10:44:08;;;;;;;17.95;11.65;;;;;;;15.49;47.74;102416.91;4941471;29;20564;-35
2024/01/13 10:46:38;;;;;;;17.65;11.50;;;;;;;15.49;48.00;102412.44;4940206;28;20062;-36
2024/01/13 10:49:13;;;;;;;15.18;10.60;;;;;;;15.48;47.52;102402.72;4938838;29;20059;-35
2024/01/13 10:51:52;;;;;;;16.10;10.90;;;;;;;15.48;47.87;102410.72;4938849;29;20416;-35
2024/01/13 10:54:20;;;;;;;15.88;10.68;;;;;;;15.48;47.94;102420.56;4941350;29;20060;-36
2024/01/13 10:56:48;;;;;;;14.95;9.32;;;;;;;15.48;48.07;102425.91;4941457;28;20101;-35
2024/01/13 10:59:16;;;;;;;14.32;10.18;;;;;;;15.47;46.96;102421.50;4940071;28;20078;-36
2024/01/13 11:01:45;;;;;;;15.55;10.50;;;;;;;15.46;47.03;102404.59;4938016;29;20134;-36
2024/01/13 11:04:13;;;;;;;14.20;9.57;;;;;;;15.46;47.17;102404.59;4940891;29;20357;-35
2024/01/13 11:06:41;;;;;;;13.90;9.38;;;;;;;15.45;47.24;102400.22;4940752;28;20082;-36
2024/01/13 11:09:13;;;;;;;17.00;10.70;;;;;;;15.45;47.11;102396.69;4940227;28;20436;-34
2024/01/13 11:12:03;;;;;;;15.35;10.48;;;;;;;15.42;47.86;102391.53;4939794;29;20059;-35
2024/01/13 11:14:38;;;;;;;15.85;10.93;;;;;;;15.44;47.85;102390.50;4939368;29;20079;-37
2024/01/13 11:17:07;;;;;;;16.15;11.25;;;;;;;15.45;47.89;102394.03;4940407;29;20051;-35
2024/01/13 11:19:35;;;;;;;17.35;12.00;;;;;;;15.44;47.17;102387.81;4936575;28;20054;-35
2024/01/13 11:22:29;;;;;;;19.98;13.15;;;;;;;15.41;47.17;102382.66;4936421;29;20173;-35
2024/01/13 11:25:26;;;;;;;21.50;14.18;;;;;;;15.44;47.69;102373.63;4941260;29;20058;-35
2024/01/13 11:27:58;;;;;;;21.65;14.73;;;;;;;15.42;47.41;102368.34;4936276;28;20150;-35